sensor_id;sensor_type;location;lat;lon;timestamp;temperature;humidity
24560;DHT22;12727;49.934;8.656;2023-12-20T00:00:13;5.00;99.90
24560;DHT22;12727;49.934;8.656;2023-12-20T00:02:39;5.10;99.90
24560;DHT22;12727;49.934;8.656;2023-12-20T00:05:05;5.10;99.90
24560;DHT22;12727;49.934;8.656;2023-12-20T00:07:31;5.10;99.90
24560;DHT22;12727;49.934;8.656;2023-12-20T00:09:56;5.10;99.90
24560;DHT22;12727;49.934;8.656;2023-12-20T00:12:22;5.10;99.90
24560;DHT22;12727;49.934;8.656;2023-12-20T00:14:48;5.10;99.90
24560;DHT22;12727;49.934;8.656;2023-12-20T00:17:13;5.10;99.90
24560;DHT22;12727;49.934;8.656;2023-12-20T00:19:39;5.10;99.90
24560;DHT22;12727;49.934;8.656;2023-12-20T00:22:05;5.00;99.90
24560;DHT22;12727;49.934;8.656;2023-12-20T00:24:30;5.00;99.90
24560;DHT22;12727;49.934;8.656;2023-12-20T00:26:56;4.90;99.90
24560;DHT22;12727;49.934;8.656;2023-12-20T00:29:21;4.90;99.90
24560;DHT22;12727;49.934;8.656;2023-12-20T00:31:47;5.00;99.90
24560;DHT22;12727;49.934;8.656;2023-12-20T00:34:12;5.10;99.90
24560;DHT22;12727;49.934;8.656;2023-12-20T00:36:38;5.00;99.90
24560;DHT22;12727;49.934;8.656;2023-12-20T00:39:03;5.00;99.90
24560;DHT22;12727;49.934;8.656;2023-12-20T00:41:29;5.10;99.90
24560;DHT22;12727;49.934;8.656;2023-12-20T00:43:55;5.00;99.90
24560;DHT22;12727;49.934;8.656;2023-12-20T00:46:20;5.00;99.90
24560;DHT22;12727;49.934;8.656;2023-12-20T00:48:46;5.00;99.90
24560;DHT22;12727;49.934;8.656;2023-12-20T00:51:11;4.90;99.90
24560;DHT22;12727;49.934;8.656;2023-12-20T00:53:37;4.90;99.90
24560;DHT22;12727;49.934;8.656;2023-12-20T00:56:03;4.90;99.90
24560;DHT22;12727;49.934;8.656;2023-12-20T00:58:28;5.00;99.90
24560;DHT22;12727;49.934;8.656;2023-12-20T01:00:54;4.90;99.90
24560;DHT22;12727;49.934;8.656;2023-12-20T01:03:19;5.00;99.90
24560;DHT22;12727;49.934;8.656;2023-12-20T01:05:45;5.00;99.90
24560;DHT22;12727;49.934;8.656;2023-12-20T01:08:11;5.00;99.90
24560;DHT22;12727;49.934;8.656;2023-12-20T01:10:36;5.10;99.90
24560;DHT22;12727;49.934;8.656;2023-12-20T01:13:02;5.00;99.90
24560;DHT22;12727;49.934;8.656;2023-12-20T01:15:27;5.00;99.90
24560;DHT22;12727;49.934;8.656;2023-12-20T01:17:53;5.00;99.90
24560;DHT22;12727;49.934;8.656;2023-12-20T01:20:18;5.10;99.90
24560;DHT22;12727;49.934;8.656;2023-12-20T01:22:45;5.00;99.90
24560;DHT22;12727;49.934;8.656;2023-12-20T01:25:11;4.90;99.90
24560;DHT22;12727;49.934;8.656;2023-12-20T01:27:37;4.90;99.90
24560;DHT22;12727;49.934;8.656;2023-12-20T01:30:03;4.90;99.90
24560;DHT22;12727;49.934;8.656;2023-12-20T01:32:29;4.90;99.90
24560;DHT22;12727;49.934;8.656;2023-12-20T01:34:55;4.90;99.90
24560;DHT22;12727;49.934;8.656;2023-12-20T01:37:21;5.00;99.90
24560;DHT22;12727;49.934;8.656;2023-12-20T01:39:49;5.00;99.90
24560;DHT22;12727;49.934;8.656;2023-12-20T01:42:14;5.00;99.90
24560;DHT22;12727;49.934;8.656;2023-12-20T01:44:40;4.90;99.90
24560;DHT22;12727;49.934;8.656;2023-12-20T01:47:05;4.90;99.90
24560;DHT22;12727;49.934;8.656;2023-12-20T01:49:31;4.80;99.90
24560;DHT22;12727;49.934;8.656;2023-12-20T01:51:57;4.80;99.90
24560;DHT22;12727;49.934;8.656;2023-12-20T01:54:22;4.80;99.90
24560;DHT22;12727;49.934;8.656;2023-12-20T01:56:49;4.70;99.90
24560;DHT22;12727;49.934;8.656;2023-12-20T01:59:15;4.80;99.90
24560;DHT22;12727;49.934;8.656;2023-12-20T02:01:41;4.80;99.90
24560;DHT22;12727;49.934;8.656;2023-12-20T02:04:06;4.80;99.90
24560;DHT22;12727;49.934;8.656;2023-12-20T02:06:33;4.80;99.90
24560;DHT22;12727;49.934;8.656;2023-12-20T02:08:59;4.80;99.90
24560;DHT22;12727;49.934;8.656;2023-12-20T02:11:25;4.80;99.90
24560;DHT22;12727;49.934;8.656;2023-12-20T02:13:51;4.90;99.90
24560;DHT22;12727;49.934;8.656;2023-12-20T02:16:17;4.90;99.90
24560;DHT22;12727;49.934;8.656;2023-12-20T02:18:43;5.00;99.90
24560;DHT22;12727;49.934;8.656;2023-12-20T02:21:12;5.00;99.90
24560;DHT22;12727;49.934;8.656;2023-12-20T02:23:38;5.00;99.90
24560;DHT22;12727;49.934;8.656;2023-12-20T02:26:04;5.00;99.90
24560;DHT22;12727;49.934;8.656;2023-12-20T02:28:30;5.00;99.90
24560;DHT22;12727;49.934;8.656;2023-12-20T02:30:57;5.00;99.90
24560;DHT22;12727;49.934;8.656;2023-12-20T02:33:22;4.90;99.90
24560;DHT22;12727;49.934;8.656;2023-12-20T02:35:48;4.80;99.90
24560;DHT22;12727;49.934;8.656;2023-12-20T02:38:13;4.80;99.90
24560;DHT22;12727;49.934;8.656;2023-12-20T02:40:39;4.80;99.90
24560;DHT22;12727;49.934;8.656;2023-12-20T02:43:05;4.80;99.90
24560;DHT22;12727;49.934;8.656;2023-12-20T02:45:30;4.90;99.90
24560;DHT22;12727;49.934;8.656;2023-12-20T02:47:56;4.90;99.90
24560;DHT22;12727;49.934;8.656;2023-12-20T02:50:21;4.90;99.90
24560;DHT22;12727;49.934;8.656;2023-12-20T02:52:47;5.00;99.90
24560;DHT22;12727;49.934;8.656;2023-12-20T02:55:13;5.00;99.90
24560;DHT22;12727;49.934;8.656;2023-12-20T02:57:38;5.00;99.90
24560;DHT22;12727;49.934;8.656;2023-12-20T03:00:08;4.80;99.90
24560;DHT22;12727;49.934;8.656;2023-12-20T03:02:34;4.80;99.90
24560;DHT22;12727;49.934;8.656;2023-12-20T03:05:00;4.80;99.90
24560;DHT22;12727;49.934;8.656;2023-12-20T03:07:26;4.70;99.90
24560;DHT22;12727;49.934;8.656;2023-12-20T03:09:51;4.70;99.90
24560;DHT22;12727;49.934;8.656;2023-12-20T03:12:16;4.70;99.90
24560;DHT22;12727;49.934;8.656;2023-12-20T03:14:43;4.70;99.90
24560;DHT22;12727;49.934;8.656;2023-12-20T03:17:09;4.70;99.90
24560;DHT22;12727;49.934;8.656;2023-12-20T03:19:35;4.70;99.90
24560;DHT22;12727;49.934;8.656;2023-12-20T03:22:00;4.70;99.90
24560;DHT22;12727;49.934;8.656;2023-12-20T03:24:26;4.70;99.90
24560;DHT22;12727;49.934;8.656;2023-12-20T03:26:52;4.70;99.90
24560;DHT22;12727;49.934;8.656;2023-12-20T03:29:17;4.70;99.90
24560;DHT22;12727;49.934;8.656;2023-12-20T03:31:43;4.70;99.90
24560;DHT22;12727;49.934;8.656;2023-12-20T03:34:08;4.70;99.90
24560;DHT22;12727;49.934;8.656;2023-12-20T03:36:34;4.70;99.90
24560;DHT22;12727;49.934;8.656;2023-12-20T03:39:00;4.70;99.90
24560;DHT22;12727;49.934;8.656;2023-12-20T03:41:25;4.80;99.90
24560;DHT22;12727;49.934;8.656;2023-12-20T03:43:51;4.70;99.90
24560;DHT22;12727;49.934;8.656;2023-12-20T03:46:16;4.70;99.90
24560;DHT22;12727;49.934;8.656;2023-12-20T03:48:42;4.70;99.90
24560;DHT22;12727;49.934;8.656;2023-12-20T03:51:07;4.80;99.90
24560;DHT22;12727;49.934;8.656;2023-12-20T03:53:33;4.70;99.90
24560;DHT22;12727;49.934;8.656;2023-12-20T03:55:59;4.80;99.90
24560;DHT22;12727;49.934;8.656;2023-12-20T03:58:24;4.80;99.90
24560;DHT22;12727;49.934;8.656;2023-12-20T04:00:50;4.70;99.90
24560;DHT22;12727;49.934;8.656;2023-12-20T04:03:15;4.70;99.90
24560;DHT22;12727;49.934;8.656;2023-12-20T04:05:41;4.70;99.90
24560;DHT22;12727;49.934;8.656;2023-12-20T04:08:07;4.70;99.90
24560;DHT22;12727;49.934;8.656;2023-12-20T04:10:33;4.80;99.90
24560;DHT22;12727;49.934;8.656;2023-12-20T04:12:58;4.80;99.90
24560;DHT22;12727;49.934;8.656;2023-12-20T04:15:24;4.80;99.90
24560;DHT22;12727;49.934;8.656;2023-12-20T04:17:49;4.80;99.90
24560;DHT22;12727;49.934;8.656;2023-12-20T04:20:15;4.80;99.90
24560;DHT22;12727;49.934;8.656;2023-12-20T04:22:40;4.80;99.90
24560;DHT22;12727;49.934;8.656;2023-12-20T04:25:08;4.80;99.90
24560;DHT22;12727;49.934;8.656;2023-12-20T04:27:33;4.80;99.90
24560;DHT22;12727;49.934;8.656;2023-12-20T04:29:59;4.80;99.90
24560;DHT22;12727;49.934;8.656;2023-12-20T04:32:24;4.90;99.90
24560;DHT22;12727;49.934;8.656;2023-12-20T04:34:50;4.80;99.90
24560;DHT22;12727;49.934;8.656;2023-12-20T04:37:16;4.90;99.90
24560;DHT22;12727;49.934;8.656;2023-12-20T04:39:41;4.90;99.90
24560;DHT22;12727;49.934;8.656;2023-12-20T04:42:08;4.90;99.90
24560;DHT22;12727;49.934;8.656;2023-12-20T04:44:33;5.00;99.90
24560;DHT22;12727;49.934;8.656;2023-12-20T04:46:59;4.90;99.90
24560;DHT22;12727;49.934;8.656;2023-12-20T04:49:25;4.90;99.90
24560;DHT22;12727;49.934;8.656;2023-12-20T04:51:51;4.90;99.90
24560;DHT22;12727;49.934;8.656;2023-12-20T04:54:16;4.90;99.90
24560;DHT22;12727;49.934;8.656;2023-12-20T04:56:42;5.00;99.90
24560;DHT22;12727;49.934;8.656;2023-12-20T04:59:07;5.00;99.90
24560;DHT22;12727;49.934;8.656;2023-12-20T05:01:33;5.00;99.90
24560;DHT22;12727;49.934;8.656;2023-12-20T05:03:59;5.00;99.90
24560;DHT22;12727;49.934;8.656;2023-12-20T05:06:24;5.00;99.90
24560;DHT22;12727;49.934;8.656;2023-12-20T05:08:50;5.00;99.90
24560;DHT22;12727;49.934;8.656;2023-12-20T05:11:15;4.90;99.90
24560;DHT22;12727;49.934;8.656;2023-12-20T05:13:41;4.90;99.90
24560;DHT22;12727;49.934;8.656;2023-12-20T05:16:07;4.90;99.90
24560;DHT22;12727;49.934;8.656;2023-12-20T05:18:34;4.90;99.90
24560;DHT22;12727;49.934;8.656;2023-12-20T05:21:00;5.00;99.90
24560;DHT22;12727;49.934;8.656;2023-12-20T05:23:25;4.90;99.90
24560;DHT22;12727;49.934;8.656;2023-12-20T05:25:51;5.00;99.90
24560;DHT22;12727;49.934;8.656;2023-12-20T05:28:17;5.00;99.90
24560;DHT22;12727;49.934;8.656;2023-12-20T05:30:42;5.00;99.90
24560;DHT22;12727;49.934;8.656;2023-12-20T05:33:09;5.00;99.90
24560;DHT22;12727;49.934;8.656;2023-12-20T05:35:35;5.00;99.90
24560;DHT22;12727;49.934;8.656;2023-12-20T05:38:00;5.00;99.90
24560;DHT22;12727;49.934;8.656;2023-12-20T05:40:26;4.90;99.90
24560;DHT22;12727;49.934;8.656;2023-12-20T05:42:52;4.80;99.90
24560;DHT22;12727;49.934;8.656;2023-12-20T05:45:17;4.80;99.90
24560;DHT22;12727;49.934;8.656;2023-12-20T05:47:43;4.80;99.90
24560;DHT22;12727;49.934;8.656;2023-12-20T05:50:09;4.70;99.90
24560;DHT22;12727;49.934;8.656;2023-12-20T05:52:35;4.60;99.90
24560;DHT22;12727;49.934;8.656;2023-12-20T05:55:00;4.50;99.90
24560;DHT22;12727;49.934;8.656;2023-12-20T05:57:28;4.40;99.90
24560;DHT22;12727;49.934;8.656;2023-12-20T05:59:54;4.40;99.90
24560;DHT22;12727;49.934;8.656;2023-12-20T06:02:20;4.40;99.90
24560;DHT22;12727;49.934;8.656;2023-12-20T06:04:45;4.40;99.90
24560;DHT22;12727;49.934;8.656;2023-12-20T06:07:12;4.40;99.90
24560;DHT22;12727;49.934;8.656;2023-12-20T06:09:38;4.40;99.90
24560;DHT22;12727;49.934;8.656;2023-12-20T06:12:04;4.30;99.90
24560;DHT22;12727;49.934;8.656;2023-12-20T06:14:30;4.40;99.90
24560;DHT22;12727;49.934;8.656;2023-12-20T06:16:57;4.30;99.90
24560;DHT22;12727;49.934;8.656;2023-12-20T06:19:22;4.20;99.90
24560;DHT22;12727;49.934;8.656;2023-12-20T06:21:48;4.20;99.90
24560;DHT22;12727;49.934;8.656;2023-12-20T06:24:14;4.20;99.90
24560;DHT22;12727;49.934;8.656;2023-12-20T06:26:39;4.20;99.90
24560;DHT22;12727;49.934;8.656;2023-12-20T06:29:05;4.20;99.90
24560;DHT22;12727;49.934;8.656;2023-12-20T06:31:31;4.20;99.90
24560;DHT22;12727;49.934;8.656;2023-12-20T06:33:58;4.20;99.90
24560;DHT22;12727;49.934;8.656;2023-12-20T06:36:29;4.20;99.90
24560;DHT22;12727;49.934;8.656;2023-12-20T06:38:54;4.20;99.90
24560;DHT22;12727;49.934;8.656;2023-12-20T06:41:20;4.10;99.90
24560;DHT22;12727;49.934;8.656;2023-12-20T06:43:46;4.00;99.90
24560;DHT22;12727;49.934;8.656;2023-12-20T06:46:12;3.90;99.90
24560;DHT22;12727;49.934;8.656;2023-12-20T06:48:39;3.90;99.90
24560;DHT22;12727;49.934;8.656;2023-12-20T06:51:05;3.90;99.90
24560;DHT22;12727;49.934;8.656;2023-12-20T06:53:31;3.80;99.90
24560;DHT22;12727;49.934;8.656;2023-12-20T06:55:57;3.80;99.90
24560;DHT22;12727;49.934;8.656;2023-12-20T06:58:23;3.80;99.90
24560;DHT22;12727;49.934;8.656;2023-12-20T07:00:52;3.90;99.90
24560;DHT22;12727;49.934;8.656;2023-12-20T07:03:20;3.90;99.90
24560;DHT22;12727;49.934;8.656;2023-12-20T07:05:45;3.80;99.90
24560;DHT22;12727;49.934;8.656;2023-12-20T07:08:11;3.80;99.90
24560;DHT22;12727;49.934;8.656;2023-12-20T07:10:39;3.80;99.90
24560;DHT22;12727;49.934;8.656;2023-12-20T07:13:05;3.80;99.90
24560;DHT22;12727;49.934;8.656;2023-12-20T07:15:31;3.80;99.90
24560;DHT22;12727;49.934;8.656;2023-12-20T07:17:57;3.80;99.90
24560;DHT22;12727;49.934;8.656;2023-12-20T07:20:25;3.70;99.90
24560;DHT22;12727;49.934;8.656;2023-12-20T07:22:50;3.80;99.90
24560;DHT22;12727;49.934;8.656;2023-12-20T07:25:16;3.90;99.90
24560;DHT22;12727;49.934;8.656;2023-12-20T07:27:42;3.90;99.90
24560;DHT22;12727;49.934;8.656;2023-12-20T07:30:08;4.10;99.90
24560;DHT22;12727;49.934;8.656;2023-12-20T07:32:33;4.10;99.90
24560;DHT22;12727;49.934;8.656;2023-12-20T07:34:59;4.20;99.90
24560;DHT22;12727;49.934;8.656;2023-12-20T07:37:24;4.20;99.90
24560;DHT22;12727;49.934;8.656;2023-12-20T07:39:50;4.20;99.90
24560;DHT22;12727;49.934;8.656;2023-12-20T07:42:15;4.20;99.90
24560;DHT22;12727;49.934;8.656;2023-12-20T07:44:41;4.30;99.90
24560;DHT22;12727;49.934;8.656;2023-12-20T07:47:07;4.30;99.90
24560;DHT22;12727;49.934;8.656;2023-12-20T07:49:35;4.30;99.90
24560;DHT22;12727;49.934;8.656;2023-12-20T07:52:01;4.40;99.90
24560;DHT22;12727;49.934;8.656;2023-12-20T07:54:27;4.40;99.90
24560;DHT22;12727;49.934;8.656;2023-12-20T07:56:53;4.40;99.90
24560;DHT22;12727;49.934;8.656;2023-12-20T07:59:18;4.30;99.90
24560;DHT22;12727;49.934;8.656;2023-12-20T08:01:44;4.30;99.90
24560;DHT22;12727;49.934;8.656;2023-12-20T08:04:09;4.40;99.90
24560;DHT22;12727;49.934;8.656;2023-12-20T08:06:35;4.40;99.90
24560;DHT22;12727;49.934;8.656;2023-12-20T08:09:01;4.40;99.90
24560;DHT22;12727;49.934;8.656;2023-12-20T08:11:26;4.50;99.90
24560;DHT22;12727;49.934;8.656;2023-12-20T08:13:52;4.50;99.90
24560;DHT22;12727;49.934;8.656;2023-12-20T08:16:17;4.40;99.90
24560;DHT22;12727;49.934;8.656;2023-12-20T08:18:43;4.40;99.90
24560;DHT22;12727;49.934;8.656;2023-12-20T08:21:09;4.30;99.90
24560;DHT22;12727;49.934;8.656;2023-12-20T08:23:35;4.30;99.90
24560;DHT22;12727;49.934;8.656;2023-12-20T08:26:05;4.40;99.90
24560;DHT22;12727;49.934;8.656;2023-12-20T08:28:31;4.60;99.90
24560;DHT22;12727;49.934;8.656;2023-12-20T08:30:57;4.90;99.90
24560;DHT22;12727;49.934;8.656;2023-12-20T08:33:23;5.10;99.90
24560;DHT22;12727;49.934;8.656;2023-12-20T08:35:48;5.10;99.90
24560;DHT22;12727;49.934;8.656;2023-12-20T08:38:14;5.00;99.90
24560;DHT22;12727;49.934;8.656;2023-12-20T08:40:39;5.00;99.90
24560;DHT22;12727;49.934;8.656;2023-12-20T08:43:05;4.90;99.90
24560;DHT22;12727;49.934;8.656;2023-12-20T08:45:31;4.90;99.90
24560;DHT22;12727;49.934;8.656;2023-12-20T08:47:57;4.90;99.90
24560;DHT22;12727;49.934;8.656;2023-12-20T08:50:22;4.80;99.90
24560;DHT22;12727;49.934;8.656;2023-12-20T08:52:48;4.80;99.90
24560;DHT22;12727;49.934;8.656;2023-12-20T08:55:13;4.90;99.90
24560;DHT22;12727;49.934;8.656;2023-12-20T08:57:41;4.90;99.90
24560;DHT22;12727;49.934;8.656;2023-12-20T09:00:07;5.00;99.90
24560;DHT22;12727;49.934;8.656;2023-12-20T09:02:33;5.10;99.90
24560;DHT22;12727;49.934;8.656;2023-12-20T09:05:01;5.20;99.90
24560;DHT22;12727;49.934;8.656;2023-12-20T09:07:27;5.20;99.90
24560;DHT22;12727;49.934;8.656;2023-12-20T09:09:55;5.20;99.90
24560;DHT22;12727;49.934;8.656;2023-12-20T09:12:21;5.20;99.90
24560;DHT22;12727;49.934;8.656;2023-12-20T09:14:48;5.20;99.90
24560;DHT22;12727;49.934;8.656;2023-12-20T09:17:15;5.20;99.90
24560;DHT22;12727;49.934;8.656;2023-12-20T09:19:42;5.20;99.90
24560;DHT22;12727;49.934;8.656;2023-12-20T09:22:10;5.30;99.90
24560;DHT22;12727;49.934;8.656;2023-12-20T09:24:36;5.30;99.90
24560;DHT22;12727;49.934;8.656;2023-12-20T09:27:02;5.30;99.90
24560;DHT22;12727;49.934;8.656;2023-12-20T09:29:28;5.40;99.90
24560;DHT22;12727;49.934;8.656;2023-12-20T09:31:53;5.50;99.90
24560;DHT22;12727;49.934;8.656;2023-12-20T09:34:19;5.60;99.90
24560;DHT22;12727;49.934;8.656;2023-12-20T09:36:45;5.70;99.90
24560;DHT22;12727;49.934;8.656;2023-12-20T09:39:14;5.70;99.90
24560;DHT22;12727;49.934;8.656;2023-12-20T09:41:44;5.70;99.90
24560;DHT22;12727;49.934;8.656;2023-12-20T09:44:16;5.70;99.90
24560;DHT22;12727;49.934;8.656;2023-12-20T09:46:46;5.70;99.90
24560;DHT22;12727;49.934;8.656;2023-12-20T09:49:13;5.60;99.90
24560;DHT22;12727;49.934;8.656;2023-12-20T09:51:39;5.60;99.90
24560;DHT22;12727;49.934;8.656;2023-12-20T09:54:06;5.60;99.90
24560;DHT22;12727;49.934;8.656;2023-12-20T09:56:31;5.60;99.90
24560;DHT22;12727;49.934;8.656;2023-12-20T09:58:57;5.70;99.90
24560;DHT22;12727;49.934;8.656;2023-12-20T10:01:24;5.70;99.90
24560;DHT22;12727;49.934;8.656;2023-12-20T10:03:51;5.80;99.90
24560;DHT22;12727;49.934;8.656;2023-12-20T10:06:19;5.80;99.90
24560;DHT22;12727;49.934;8.656;2023-12-20T10:08:45;5.90;99.90
24560;DHT22;12727;49.934;8.656;2023-12-20T10:11:11;5.90;99.90
24560;DHT22;12727;49.934;8.656;2023-12-20T10:13:40;5.90;99.90
24560;DHT22;12727;49.934;8.656;2023-12-20T10:16:06;5.90;99.90
24560;DHT22;12727;49.934;8.656;2023-12-20T10:18:33;6.00;99.90
24560;DHT22;12727;49.934;8.656;2023-12-20T10:20:59;6.10;99.90
24560;DHT22;12727;49.934;8.656;2023-12-20T10:23:25;6.20;99.90
24560;DHT22;12727;49.934;8.656;2023-12-20T10:25:57;6.30;99.90
24560;DHT22;12727;49.934;8.656;2023-12-20T10:28:23;6.30;99.90
24560;DHT22;12727;49.934;8.656;2023-12-20T10:30:53;6.30;99.90
24560;DHT22;12727;49.934;8.656;2023-12-20T10:33:27;6.30;99.90
24560;DHT22;12727;49.934;8.656;2023-12-20T10:35:55;6.30;99.90
24560;DHT22;12727;49.934;8.656;2023-12-20T10:38:21;6.40;99.90
24560;DHT22;12727;49.934;8.656;2023-12-20T10:40:47;6.40;99.90
24560;DHT22;12727;49.934;8.656;2023-12-20T10:43:15;6.50;99.90
24560;DHT22;12727;49.934;8.656;2023-12-20T10:45:42;6.40;99.90
24560;DHT22;12727;49.934;8.656;2023-12-20T10:48:10;6.60;99.90
24560;DHT22;12727;49.934;8.656;2023-12-20T10:50:36;6.50;99.90
24560;DHT22;12727;49.934;8.656;2023-12-20T10:53:04;6.50;99.90
24560;DHT22;12727;49.934;8.656;2023-12-20T10:55:29;6.60;99.90
24560;DHT22;12727;49.934;8.656;2023-12-20T10:58:01;6.50;99.90
24560;DHT22;12727;49.934;8.656;2023-12-20T11:00:29;6.60;99.90
24560;DHT22;12727;49.934;8.656;2023-12-20T11:02:56;6.60;99.90
24560;DHT22;12727;49.934;8.656;2023-12-20T11:08:09;6.70;99.90
24560;DHT22;12727;49.934;8.656;2023-12-20T11:11:06;6.80;99.90
24560;DHT22;12727;49.934;8.656;2023-12-20T11:13:37;6.70;99.90
24560;DHT22;12727;49.934;8.656;2023-12-20T11:16:06;6.80;99.90
24560;DHT22;12727;49.934;8.656;2023-12-20T11:18:33;6.70;99.90
24560;DHT22;12727;49.934;8.656;2023-12-20T11:21:02;6.80;99.90
24560;DHT22;12727;49.934;8.656;2023-12-20T11:23:30;6.80;99.90
24560;DHT22;12727;49.934;8.656;2023-12-20T11:25:57;6.80;99.90
24560;DHT22;12727;49.934;8.656;2023-12-20T11:28:26;6.90;99.90
24560;DHT22;12727;49.934;8.656;2023-12-20T11:30:54;6.80;99.90
24560;DHT22;12727;49.934;8.656;2023-12-20T11:33:27;6.80;99.90
24560;DHT22;12727;49.934;8.656;2023-12-20T11:35:59;6.80;99.90
24560;DHT22;12727;49.934;8.656;2023-12-20T11:38:25;6.80;99.90
24560;DHT22;12727;49.934;8.656;2023-12-20T11:40:53;6.80;99.90
24560;DHT22;12727;49.934;8.656;2023-12-20T11:43:38;6.80;99.90
24560;DHT22;12727;49.934;8.656;2023-12-20T11:46:05;6.80;99.90
24560;DHT22;12727;49.934;8.656;2023-12-20T11:48:31;6.80;99.90
24560;DHT22;12727;49.934;8.656;2023-12-20T11:50:57;6.80;99.90
24560;DHT22;12727;49.934;8.656;2023-12-20T11:53:23;6.80;99.90
24560;DHT22;12727;49.934;8.656;2023-12-20T11:55:49;6.90;99.90
24560;DHT22;12727;49.934;8.656;2023-12-20T11:58:15;6.90;99.90
24560;DHT22;12727;49.934;8.656;2023-12-20T12:00:42;6.90;99.90
24560;DHT22;12727;49.934;8.656;2023-12-20T12:03:14;6.90;99.90
24560;DHT22;12727;49.934;8.656;2023-12-20T12:05:40;6.80;99.90
24560;DHT22;12727;49.934;8.656;2023-12-20T12:08:08;6.80;99.90
24560;DHT22;12727;49.934;8.656;2023-12-20T12:10:34;6.70;99.90
24560;DHT22;12727;49.934;8.656;2023-12-20T12:13:00;6.70;99.90
24560;DHT22;12727;49.934;8.656;2023-12-20T12:15:26;6.70;99.90
24560;DHT22;12727;49.934;8.656;2023-12-20T12:17:55;6.70;99.90
24560;DHT22;12727;49.934;8.656;2023-12-20T12:20:21;6.70;99.90
24560;DHT22;12727;49.934;8.656;2023-12-20T12:22:59;6.70;99.90
24560;DHT22;12727;49.934;8.656;2023-12-20T12:25:25;6.80;99.90
24560;DHT22;12727;49.934;8.656;2023-12-20T12:27:51;6.80;99.90
24560;DHT22;12727;49.934;8.656;2023-12-20T12:30:16;6.90;99.90
24560;DHT22;12727;49.934;8.656;2023-12-20T12:32:44;7.00;99.90
24560;DHT22;12727;49.934;8.656;2023-12-20T12:35:09;7.20;99.90
24560;DHT22;12727;49.934;8.656;2023-12-20T12:37:38;7.30;99.90
24560;DHT22;12727;49.934;8.656;2023-12-20T12:40:10;7.40;99.90
24560;DHT22;12727;49.934;8.656;2023-12-20T12:42:37;7.50;99.90
24560;DHT22;12727;49.934;8.656;2023-12-20T12:45:03;7.50;99.90
24560;DHT22;12727;49.934;8.656;2023-12-20T12:47:30;7.40;99.90
24560;DHT22;12727;49.934;8.656;2023-12-20T12:49:58;7.50;99.90
24560;DHT22;12727;49.934;8.656;2023-12-20T12:52:24;7.40;99.90
24560;DHT22;12727;49.934;8.656;2023-12-20T12:54:49;7.40;99.90
24560;DHT22;12727;49.934;8.656;2023-12-20T12:57:15;7.40;99.90
24560;DHT22;12727;49.934;8.656;2023-12-20T12:59:44;7.30;99.90
24560;DHT22;12727;49.934;8.656;2023-12-20T13:02:12;7.30;99.90
24560;DHT22;12727;49.934;8.656;2023-12-20T13:04:39;7.30;99.90
24560;DHT22;12727;49.934;8.656;2023-12-20T13:07:05;7.20;99.90
24560;DHT22;12727;49.934;8.656;2023-12-20T13:09:31;7.20;99.90
24560;DHT22;12727;49.934;8.656;2023-12-20T13:11:57;7.20;99.90
24560;DHT22;12727;49.934;8.656;2023-12-20T13:14:22;7.20;99.90
24560;DHT22;12727;49.934;8.656;2023-12-20T13:16:48;7.20;99.90
24560;DHT22;12727;49.934;8.656;2023-12-20T13:19:14;7.20;99.90
24560;DHT22;12727;49.934;8.656;2023-12-20T13:21:40;7.20;99.90
24560;DHT22;12727;49.934;8.656;2023-12-20T13:24:05;7.10;99.90
24560;DHT22;12727;49.934;8.656;2023-12-20T13:26:31;7.10;99.90
24560;DHT22;12727;49.934;8.656;2023-12-20T13:28:58;7.10;99.90
24560;DHT22;12727;49.934;8.656;2023-12-20T13:31:23;7.20;99.90
24560;DHT22;12727;49.934;8.656;2023-12-20T13:33:49;7.30;99.90
24560;DHT22;12727;49.934;8.656;2023-12-20T13:36:15;7.30;99.90
24560;DHT22;12727;49.934;8.656;2023-12-20T13:38:40;7.30;99.90
24560;DHT22;12727;49.934;8.656;2023-12-20T13:41:06;7.10;99.90
24560;DHT22;12727;49.934;8.656;2023-12-20T13:43:32;7.10;99.90
24560;DHT22;12727;49.934;8.656;2023-12-20T13:45:58;7.10;99.90
24560;DHT22;12727;49.934;8.656;2023-12-20T13:48:24;7.10;99.90
24560;DHT22;12727;49.934;8.656;2023-12-20T13:50:50;7.10;99.90
24560;DHT22;12727;49.934;8.656;2023-12-20T13:53:16;7.20;99.90
24560;DHT22;12727;49.934;8.656;2023-12-20T13:55:41;7.20;99.90
24560;DHT22;12727;49.934;8.656;2023-12-20T13:58:07;7.30;99.90
24560;DHT22;12727;49.934;8.656;2023-12-20T14:00:32;7.30;99.90
24560;DHT22;12727;49.934;8.656;2023-12-20T14:02:58;7.20;99.90
24560;DHT22;12727;49.934;8.656;2023-12-20T14:05:24;7.30;99.90
24560;DHT22;12727;49.934;8.656;2023-12-20T14:07:49;7.30;99.90
24560;DHT22;12727;49.934;8.656;2023-12-20T14:10:15;7.30;99.90
24560;DHT22;12727;49.934;8.656;2023-12-20T14:12:41;7.20;99.90
24560;DHT22;12727;49.934;8.656;2023-12-20T14:15:07;7.30;99.90
24560;DHT22;12727;49.934;8.656;2023-12-20T14:17:38;7.20;99.90
24560;DHT22;12727;49.934;8.656;2023-12-20T14:20:06;7.10;99.90
24560;DHT22;12727;49.934;8.656;2023-12-20T14:22:32;7.10;99.90
24560;DHT22;12727;49.934;8.656;2023-12-20T14:24:58;7.20;99.90
24560;DHT22;12727;49.934;8.656;2023-12-20T14:27:23;7.20;99.90
24560;DHT22;12727;49.934;8.656;2023-12-20T14:29:53;7.20;99.90
24560;DHT22;12727;49.934;8.656;2023-12-20T14:32:19;7.20;99.90
24560;DHT22;12727;49.934;8.656;2023-12-20T14:34:45;7.20;99.90
24560;DHT22;12727;49.934;8.656;2023-12-20T14:37:10;7.10;99.90
24560;DHT22;12727;49.934;8.656;2023-12-20T14:39:36;7.10;99.90
24560;DHT22;12727;49.934;8.656;2023-12-20T14:42:07;7.10;99.90
24560;DHT22;12727;49.934;8.656;2023-12-20T14:44:36;7.00;99.90
24560;DHT22;12727;49.934;8.656;2023-12-20T14:47:02;7.10;99.90
24560;DHT22;12727;49.934;8.656;2023-12-20T14:49:27;7.10;99.90
24560;DHT22;12727;49.934;8.656;2023-12-20T14:51:53;7.20;99.90
24560;DHT22;12727;49.934;8.656;2023-12-20T14:54:19;7.20;99.90
24560;DHT22;12727;49.934;8.656;2023-12-20T14:56:46;7.20;99.90
24560;DHT22;12727;49.934;8.656;2023-12-20T14:59:12;7.10;99.90
24560;DHT22;12727;49.934;8.656;2023-12-20T15:01:38;7.10;99.90
24560;DHT22;12727;49.934;8.656;2023-12-20T15:04:06;7.00;99.90
24560;DHT22;12727;49.934;8.656;2023-12-20T15:06:32;7.00;99.90
24560;DHT22;12727;49.934;8.656;2023-12-20T15:08:58;7.00;99.90
24560;DHT22;12727;49.934;8.656;2023-12-20T15:11:24;7.00;99.90
24560;DHT22;12727;49.934;8.656;2023-12-20T15:13:49;7.10;99.90
24560;DHT22;12727;49.934;8.656;2023-12-20T15:16:20;7.10;99.90
24560;DHT22;12727;49.934;8.656;2023-12-20T15:18:46;7.00;99.90
24560;DHT22;12727;49.934;8.656;2023-12-20T15:21:11;7.00;99.90
24560;DHT22;12727;49.934;8.656;2023-12-20T15:23:37;6.90;99.90
24560;DHT22;12727;49.934;8.656;2023-12-20T15:26:03;6.90;99.90
24560;DHT22;12727;49.934;8.656;2023-12-20T15:28:30;6.90;99.90
24560;DHT22;12727;49.934;8.656;2023-12-20T15:30:55;6.90;99.90
24560;DHT22;12727;49.934;8.656;2023-12-20T15:33:22;6.90;99.90
24560;DHT22;12727;49.934;8.656;2023-12-20T15:35:48;6.90;99.90
24560;DHT22;12727;49.934;8.656;2023-12-20T15:38:13;6.90;99.90
24560;DHT22;12727;49.934;8.656;2023-12-20T15:40:39;6.90;99.90